Time,TemperatureF,DewpointF,PressureIn,WindDirection,WindDirectionDegrees,WindSpeedMPH,WindSpeedGustMPH,Humidity,HourlyPrecipIn,Conditions,Clouds,dailyrainin,SoftwareType,DateUTC
2013-05-08 00:00:00,69.0,36.0,30.06,NW,320,1.0,-999.0,29,-99.99,,,-99.99,,2013-05-08 00:00:00,
2013-05-08 00:21:00,69.0,36.0,30.06,NW,320,1.0,-999.0,29,-99.99,,,-99.99,,2013-05-08 00:21:00,
2013-05-08 00:32:00,69.0,36.0,30.06,NW,320,1.0,-999.0,29,-99.99,,,-99.99,,2013-05-08 00:32:00,
2013-05-08 00:41:00,69.0,36.0,30.06,NW,320,1.0,-999.0,29,-99.99,,,-99.99,,2013-05-08 00:41:00,
2013-05-08 00:51:00,69.0,36.0,30.06,NW,320,1.0,-999.0,29,-99.99,,,-99.99,,2013-05-08 00:51:00,
2013-05-08 01:00:00,65.0,37.0,30.06,North,0,0.0,-999.0,35,-99.99,,,-99.99,,2013-05-08 01:00:00,
2013-05-08 01:21:00,65.0,37.0,30.06,North,0,0.0,-999.0,35,-99.99,,,-99.99,,2013-05-08 01:21:00,
2013-05-08 01:31:00,65.0,37.0,30.06,North,0,0.0,-999.0,35,-99.99,,,-99.99,,2013-05-08 01:31:00,
2013-05-08 01:41:00,65.0,37.0,30.06,North,0,0.0,-999.0,35,-99.99,,,-99.99,,2013-05-08 01:41:00,
2013-05-08 01:52:00,65.0,37.0,30.06,North,0,0.0,-999.0,35,-99.99,,,-99.99,,2013-05-08 01:52:00,
2013-05-08 03:00:00,58.0,42.0,30.07,North,0,0.0,-999.0,55,-99.99,,,-99.99,,2013-05-08 03:00:00,
2013-05-08 03:21:00,58.0,42.0,30.07,North,0,0.0,-999.0,55,-99.99,,,-99.99,,2013-05-08 03:21:00,
2013-05-08 03:32:00,58.0,42.0,30.07,North,0,0.0,-999.0,55,-99.99,,,-99.99,,2013-05-08 03:32:00,
2013-05-08 03:43:00,58.0,42.0,30.07,North,0,0.0,-999.0,55,-99.99,,,-99.99,,2013-05-08 03:43:00,
2013-05-08 03:52:00,58.0,42.0,30.07,North,0,0.0,-999.0,55,-99.99,,,-99.99,,2013-05-08 03:52:00,
2013-05-08 05:00:00,54.0,45.0,30.08,North,0,0.0,-999.0,70,-99.99,,,-99.99,,2013-05-08 05:00:00,
2013-05-08 05:22:00,54.0,45.0,30.08,North,0,0.0,-999.0,70,-99.99,,,-99.99,,2013-05-08 05:22:00,
2013-05-08 05:32:00,54.0,45.0,30.08,North,0,0.0,-999.0,70,-99.99,,,-99.99,,2013-05-08 05:32:00,
2013-05-08 05:42:00,54.0,45.0,30.08,North,0,0.0,-999.0,70,-99.99,,,-99.99,,2013-05-08 05:42:00,
2013-05-08 05:52:00,54.0,45.0,30.08,North,0,0.0,-999.0,70,-99.99,,,-99.99,,2013-05-08 05:52:00,
2013-05-08 06:00:00,53.0,45.0,30.07,North,0,0.0,-999.0,73,-99.99,,,-99.99,,2013-05-08 06:00:00,
2013-05-08 06:21:00,53.0,45.0,30.07,North,0,0.0,-999.0,73,-99.99,,,-99.99,,2013-05-08 06:21:00,
2013-05-08 06:31:00,53.0,45.0,30.07,North,0,0.0,-999.0,73,-99.99,,,-99.99,,2013-05-08 06:31:00,
2013-05-08 06:41:00,53.0,45.0,30.07,North,0,0.0,-999.0,73,-99.99,,,-99.99,,2013-05-08 06:41:00,
2013-05-08 06:51:00,53.0,45.0,30.07,North,0,0.0,-999.0,73,-99.99,,,-99.99,,2013-05-08 06:51:00,
2013-05-08 07:00:00,53.0,50.0,30.07,SSE,150,2.0,-999.0,90,-99.99,,,-99.99,,2013-05-08 07:00:00,
2013-05-08 07:21:00,53.0,50.0,30.07,SSE,150,2.0,-999.0,90,-99.99,,,-99.99,,2013-05-08 07:21:00,
2013-05-08 07:31:00,53.0,50.0,30.07,SSE,150,2.0,-999.0,90,-99.99,,,-99.99,,2013-05-08 07:31:00,
2013-05-08 07:41:00,53.0,50.0,30.07,SSE,150,2.0,-999.0,90,-99.99,,,-99.99,,2013-05-08 07:41:00,
2013-05-08 07:52:00,53.0,50.0,30.07,SSE,150,2.0,-999.0,90,-99.99,,,-99.99,,2013-05-08 07:52:00,
2013-05-08 08:00:00,51.0,45.0,30.07,ENE,70,1.0,-999.0,80,-99.99,,,-99.99,,2013-05-08 08:00:00,
2013-05-08 08:21:00,51.0,45.0,30.07,ENE,70,1.0,-999.0,80,-99.99,,,-99.99,,2013-05-08 08:21:00,
2013-05-08 08:31:00,51.0,45.0,30.07,ENE,70,1.0,-999.0,80,-99.99,,,-99.99,,2013-05-08 08:31:00,
2013-05-08 08:42:00,51.0,45.0,30.07,ENE,70,1.0,-999.0,80,-99.99,,,-99.99,,2013-05-08 08:42:00,
2013-05-08 08:51:00,51.0,45.0,30.07,ENE,70,1.0,-999.0,80,-99.99,,,-99.99,,2013-05-08 08:51:00,
2013-05-08 09:00:00,50.0,45.0,30.07,North,0,0.0,-999.0,84,-99.99,,,-99.99,,2013-05-08 09:00:00,
2013-05-08 09:21:00,50.0,45.0,30.07,North,0,0.0,-999.0,84,-99.99,,,-99.99,,2013-05-08 09:21:00,
2013-05-08 09:32:00,50.0,45.0,30.07,North,0,0.0,-999.0,84,-99.99,,,-99.99,,2013-05-08 09:32:00,
2013-05-08 09:42:00,50.0,45.0,30.07,North,0,0.0,-999.0,84,-99.99,,,-99.99,,2013-05-08 09:42:00,
2013-05-08 09:52:00,50.0,45.0,30.07,North,0,0.0,-999.0,84,-99.99,,,-99.99,,2013-05-08 09:52:00,
2013-05-08 10:00:00,50.0,45.0,30.08,North,0,0.0,-999.0,83,-99.99,,,-99.99,,2013-05-08 10:00:00,
2013-05-08 10:22:00,50.0,45.0,30.08,North,0,0.0,-999.0,83,-99.99,,,-99.99,,2013-05-08 10:22:00,
2013-05-08 10:32:00,50.0,45.0,30.08,North,0,0.0,-999.0,83,-99.99,,,-99.99,,2013-05-08 10:32:00,
2013-05-08 10:42:00,50.0,45.0,30.08,North,0,0.0,-999.0,83,-99.99,,,-99.99,,2013-05-08 10:42:00,
2013-05-08 10:52:00,50.0,45.0,30.08,North,0,0.0,-999.0,83,-99.99,,,-99.99,,2013-05-08 10:52:00,
2013-05-08 12:00:00,54.0,50.0,30.08,North,0,0.0,-999.0,85,-99.99,,,-99.99,,2013-05-08 12:00:00,
2013-05-08 12:21:00,54.0,50.0,30.08,North,0,0.0,-999.0,85,-99.99,,,-99.99,,2013-05-08 12:21:00,
2013-05-08 12:31:00,54.0,50.0,30.08,North,0,0.0,-999.0,85,-99.99,,,-99.99,,2013-05-08 12:31:00,
2013-05-08 12:41:00,54.0,50.0,30.08,North,0,0.0,-999.0,85,-99.99,,,-99.99,,2013-05-08 12:41:00,
2013-05-08 12:51:00,54.0,50.0,30.08,North,0,0.0,-999.0,85,-99.99,,,-99.99,,2013-05-08 12:51:00,
2013-05-08 14:00:00,57.0,51.0,30.08,WNW,290,2.0,-999.0,78,-99.99,,,-99.99,,2013-05-08 14:00:00,
2013-05-08 14:21:00,57.0,51.0,30.08,WNW,290,2.0,-999.0,78,-99.99,,,-99.99,,2013-05-08 14:21:00,
2013-05-08 14:31:00,57.0,51.0,30.08,WNW,290,2.0,-999.0,78,-99.99,,,-99.99,,2013-05-08 14:31:00,
2013-05-08 14:41:00,57.0,51.0,30.08,WNW,290,2.0,-999.0,78,-99.99,,,-99.99,,2013-05-08 14:41:00,
2013-05-08 14:51:00,57.0,51.0,30.08,WNW,290,2.0,-999.0,78,-99.99,,,-99.99,,2013-05-08 14:51:00,
2013-05-08 15:00:00,65.0,44.0,30.06,NW,310,2.0,-999.0,45,-99.99,,,-99.99,,2013-05-08 15:00:00,
2013-05-08 15:21:00,65.0,44.0,30.06,NW,310,2.0,-999.0,45,-99.99,,,-99.99,,2013-05-08 15:21:00,
2013-05-08 15:32:00,65.0,44.0,30.06,NW,310,2.0,-999.0,45,-99.99,,,-99.99,,2013-05-08 15:32:00,
2013-05-08 15:42:00,65.0,44.0,30.06,NW,310,2.0,-999.0,45,-99.99,,,-99.99,,2013-05-08 15:42:00,
2013-05-08 15:52:00,65.0,44.0,30.06,NW,310,2.0,-999.0,45,-99.99,,,-99.99,,2013-05-08 15:52:00,
2013-05-08 16:00:00,68.0,44.0,30.06,WNW,300,6.0,-999.0,42,-99.99,,,-99.99,,2013-05-08 16:00:00,
2013-05-08 16:23:00,68.0,44.0,30.06,WNW,300,6.0,-999.0,42,-99.99,,,-99.99,,2013-05-08 16:23:00,
2013-05-08 16:33:00,68.0,44.0,30.06,WNW,300,6.0,-999.0,42,-99.99,,,-99.99,,2013-05-08 16:33:00,
2013-05-08 16:42:00,68.0,44.0,30.06,WNW,300,6.0,-999.0,42,-99.99,,,-99.99,,2013-05-08 16:42:00,
2013-05-08 16:52:00,68.0,44.0,30.06,WNW,300,6.0,-999.0,42,-99.99,,,-99.99,,2013-05-08 16:52:00,
2013-05-08 17:00:00,72.0,41.0,30.03,WNW,290,7.0,-999.0,33,-99.99,,,-99.99,,2013-05-08 17:00:00,
2013-05-08 17:22:00,72.0,41.0,30.03,WNW,290,7.0,-999.0,33,-99.99,,,-99.99,,2013-05-08 17:22:00,
2013-05-08 17:31:00,72.0,41.0,30.03,WNW,290,7.0,-999.0,33,-99.99,,,-99.99,,2013-05-08 17:31:00,
2013-05-08 17:41:00,72.0,41.0,30.03,WNW,290,7.0,-999.0,33,-99.99,,,-99.99,,2013-05-08 17:41:00,
2013-05-08 17:52:00,72.0,41.0,30.03,WNW,290,7.0,-999.0,33,-99.99,,,-99.99,,2013-05-08 17:52:00,
2013-05-08 18:00:00,72.0,42.0,30.01,West,260,7.0,-999.0,34,-99.99,,,-99.99,,2013-05-08 18:00:00,
2013-05-08 18:21:00,72.0,42.0,30.01,West,260,7.0,-999.0,34,-99.99,,,-99.99,,2013-05-08 18:21:00,
2013-05-08 18:31:00,72.0,42.0,30.01,West,260,7.0,-999.0,34,-99.99,,,-99.99,,2013-05-08 18:31:00,
2013-05-08 18:41:00,72.0,42.0,30.01,West,260,7.0,-999.0,34,-99.99,,,-99.99,,2013-05-08 18:41:00,
2013-05-08 18:51:00,72.0,42.0,30.01,West,260,7.0,-999.0,34,-99.99,,,-99.99,,2013-05-08 18:51:00,
2013-05-08 19:00:00,72.0,35.0,30.00,West,260,7.0,-999.0,26,-99.99,,,-99.99,,2013-05-08 19:00:00,
2013-05-08 19:21:00,72.0,35.0,30.00,West,260,7.0,-999.0,26,-99.99,,,-99.99,,2013-05-08 19:21:00,
2013-05-08 19:31:00,72.0,35.0,30.00,West,260,7.0,-999.0,26,-99.99,,,-99.99,,2013-05-08 19:31:00,
2013-05-08 19:41:00,72.0,35.0,30.00,West,260,7.0,-999.0,26,-99.99,,,-99.99,,2013-05-08 19:41:00,
2013-05-08 19:52:00,72.0,35.0,30.00,West,260,7.0,-999.0,26,-99.99,,,-99.99,,2013-05-08 19:52:00,
2013-05-08 20:00:00,72.0,40.0,29.98,West,270,5.0,-999.0,31,-99.99,,,-99.99,,2013-05-08 20:00:00,
2013-05-08 20:22:00,72.0,40.0,29.98,West,270,5.0,-999.0,31,-99.99,,,-99.99,,2013-05-08 20:22:00,
2013-05-08 20:31:00,72.0,40.0,29.98,West,270,5.0,-999.0,31,-99.99,,,-99.99,,2013-05-08 20:31:00,
2013-05-08 20:41:00,72.0,40.0,29.98,West,270,5.0,-999.0,31,-99.99,,,-99.99,,2013-05-08 20:41:00,
2013-05-08 20:51:00,72.0,40.0,29.98,West,270,5.0,-999.0,31,-99.99,,,-99.99,,2013-05-08 20:51:00,
2013-05-08 21:00:00,71.0,39.0,29.97,West,280,9.0,-999.0,30,-99.99,,,-99.99,,2013-05-08 21:00:00,
2013-05-08 21:21:00,71.0,39.0,29.97,West,280,9.0,-999.0,30,-99.99,,,-99.99,,2013-05-08 21:21:00,
2013-05-08 21:32:00,71.0,39.0,29.97,West,280,9.0,-999.0,30,-99.99,,,-99.99,,2013-05-08 21:32:00,
2013-05-08 21:43:00,71.0,39.0,29.97,West,280,9.0,-999.0,30,-99.99,,,-99.99,,2013-05-08 21:43:00,
2013-05-08 21:52:00,71.0,39.0,29.97,West,280,9.0,-999.0,30,-99.99,,,-99.99,,2013-05-08 21:52:00,
2013-05-08 22:00:00,70.0,40.0,29.97,NW,310,2.0,-999.0,32,-99.99,,,-99.99,,2013-05-08 22:00:00,
2013-05-08 22:22:00,70.0,40.0,29.97,NW,310,2.0,-999.0,32,-99.99,,,-99.99,,2013-05-08 22:22:00,
2013-05-08 22:32:00,70.0,40.0,29.97,NW,310,2.0,-999.0,32,-99.99,,,-99.99,,2013-05-08 22:32:00,
2013-05-08 22:42:00,70.0,40.0,29.97,NW,310,2.0,-999.0,32,-99.99,,,-99.99,,2013-05-08 22:42:00,
2013-05-08 22:52:00,70.0,40.0,29.97,NW,310,2.0,-999.0,32,-99.99,,,-99.99,,2013-05-08 22:52:00,
2013-05-08 23:00:00,69.0,43.0,29.96,NW,310,2.0,-999.0,39,-99.99,,,-99.99,,2013-05-08 23:00:00,
2013-05-08 23:32:00,69.0,43.0,29.96,NW,310,2.0,-999.0,39,-99.99,,,-99.99,,2013-05-08 23:32:00,
2013-05-08 23:41:00,69.0,43.0,29.96,NW,310,2.0,-999.0,39,-99.99,,,-99.99,,2013-05-08 23:41:00,
2013-05-08 23:52:00,69.0,43.0,29.96,NW,310,2.0,-999.0,39,-99.99,,,-99.99,,2013-05-08 23:52:00,